createdAt,value
2023-09-16T00:01:46.241Z,7.25
2023-09-16T00:03:50.533Z,6.97
2023-09-16T00:06:10.343Z,7.63
2023-09-16T00:08:15.126Z,6.87
2023-09-16T00:10:18.648Z,7.25
2023-09-16T00:12:24.319Z,6.28
2023-09-16T00:14:31.735Z,7.28
2023-09-16T00:16:34.564Z,7.20
2023-09-16T00:18:41.976Z,8.25
2023-09-16T00:20:54.470Z,6.82
2023-09-16T00:22:57.252Z,7.00
2023-09-16T00:24:59.590Z,7.38
2023-09-16T00:27:09.319Z,7.60
2023-09-16T00:29:12.000Z,6.78
2023-09-16T00:31:17.839Z,7.75
2023-09-16T00:33:20.985Z,7.82
2023-09-16T00:35:27.617Z,7.78
2023-09-16T00:37:33.507Z,8.13
2023-09-16T00:39:38.772Z,7.13
2023-09-16T00:41:42.615Z,7.72
2023-09-16T00:43:48.181Z,6.55
2023-09-16T00:45:51.674Z,7.50
2023-09-16T00:47:54.632Z,7.97
2023-09-16T00:49:57.107Z,7.20
2023-09-16T00:52:03.060Z,7.35
2023-09-16T00:54:06.674Z,7.18
2023-09-16T00:56:10.678Z,8.02
2023-09-16T01:00:30.906Z,7.93
2023-09-16T01:02:34.387Z,8.45
2023-09-16T01:04:42.324Z,7.95
2023-09-16T01:06:45.445Z,7.68
2023-09-16T01:08:50.096Z,8.05
2023-09-16T01:10:54.176Z,8.13
2023-09-16T01:12:58.676Z,7.55
2023-09-16T01:15:05.111Z,8.25
2023-09-16T01:17:16.723Z,8.48
2023-09-16T01:19:27.899Z,8.43
2023-09-16T01:21:30.981Z,8.27
2023-09-16T01:23:36.839Z,8.60
2023-09-16T01:25:40.151Z,9.00
2023-09-16T01:27:44.026Z,9.15
2023-09-16T01:29:47.458Z,8.95
2023-09-16T01:31:57.221Z,9.80
2023-09-16T01:34:14.669Z,9.45
2023-09-16T01:36:25.158Z,9.00
2023-09-16T01:38:30.429Z,8.88
2023-09-16T01:40:34.108Z,9.70
2023-09-16T01:42:38.298Z,9.23
2023-09-16T01:44:43.610Z,9.20
2023-09-16T01:46:46.361Z,9.45
2023-09-16T01:48:49.804Z,8.93
2023-09-16T01:51:01.901Z,9.20
2023-09-16T01:53:18.194Z,9.10
2023-09-16T01:55:21.018Z,9.07
2023-09-16T01:57:27.006Z,10.05
2023-09-16T01:59:29.675Z,9.75
2023-09-16T02:01:33.313Z,9.10
2023-09-16T02:03:37.079Z,9.68
2023-09-16T02:05:40.060Z,9.55
2023-09-16T02:07:44.525Z,9.70
2023-09-16T02:09:47.729Z,9.23
2023-09-16T02:11:50.383Z,9.38
2023-09-16T02:13:52.964Z,10.13
2023-09-16T02:15:55.805Z,9.82
2023-09-16T02:17:59.728Z,8.90
2023-09-16T02:20:02.779Z,10.48
2023-09-16T02:22:05.824Z,10.18
2023-09-16T02:24:09.754Z,10.95
2023-09-16T02:26:13.210Z,11.10
2023-09-16T02:28:15.938Z,10.52
2023-09-16T02:30:18.862Z,9.98
2023-09-16T02:32:21.949Z,10.20
2023-09-16T02:34:26.037Z,10.77
2023-09-16T02:36:29.155Z,11.15
2023-09-16T02:38:31.573Z,10.57
2023-09-16T02:40:34.384Z,10.90
2023-09-16T02:42:38.782Z,10.00
2023-09-16T02:44:45.302Z,10.70
2023-09-16T02:46:48.401Z,11.57
2023-09-16T02:48:52.072Z,11.07
2023-09-16T02:50:55.423Z,11.52
2023-09-16T02:52:58.400Z,11.25
2023-09-16T02:55:01.390Z,10.88
2023-09-16T02:57:04.814Z,10.88
2023-09-16T02:59:07.549Z,11.40
2023-09-16T03:01:18.459Z,11.50
2023-09-16T03:03:21.813Z,12.10
2023-09-16T03:05:25.346Z,11.05
2023-09-16T03:07:28.024Z,12.00
2023-09-16T03:09:31.229Z,11.40
2023-09-16T03:11:34.542Z,11.52
2023-09-16T03:13:37.692Z,12.20
2023-09-16T03:15:49.858Z,12.85
2023-09-16T03:18:07.563Z,13.23
2023-09-16T03:20:11.648Z,12.05
2023-09-16T03:22:15.163Z,12.88
2023-09-16T03:24:17.887Z,11.88
2023-09-16T03:26:21.264Z,11.27
2023-09-16T03:28:24.314Z,12.50
2023-09-16T03:30:27.444Z,13.20
2023-09-16T03:32:31.297Z,13.05
2023-09-16T03:34:34.345Z,12.75
2023-09-16T03:36:37.145Z,13.40
2023-09-16T03:38:47.685Z,12.05
2023-09-16T03:40:52.201Z,13.73
2023-09-16T03:42:54.548Z,12.70
2023-09-16T03:44:56.660Z,12.95
2023-09-16T03:46:58.829Z,14.13
2023-09-16T03:49:01.217Z,13.63
2023-09-16T03:51:08.291Z,13.20
2023-09-16T03:53:11.977Z,13.48
2023-09-16T03:55:15.420Z,13.23
2023-09-16T03:57:17.917Z,13.50
2023-09-16T03:59:20.186Z,13.55
2023-09-16T04:01:22.551Z,14.63
2023-09-16T04:03:25.143Z,14.63
2023-09-16T04:05:27.590Z,14.55
2023-09-16T04:07:29.681Z,14.38
2023-09-16T04:09:31.915Z,13.80
2023-09-16T04:11:34.009Z,13.93
2023-09-16T04:13:36.783Z,13.55
2023-09-16T04:15:39.168Z,14.63
2023-09-16T04:17:41.784Z,14.10
2023-09-16T04:19:44.342Z,14.75
2023-09-16T04:21:48.096Z,15.80
2023-09-16T04:23:50.792Z,14.63
2023-09-16T04:25:58.040Z,13.60
2023-09-16T04:28:00.787Z,14.13
2023-09-16T04:30:05.012Z,13.18
2023-09-16T04:32:10.155Z,14.18
2023-09-16T04:34:12.454Z,14.30
2023-09-16T04:36:14.917Z,13.60
2023-09-16T04:38:18.453Z,13.32
2023-09-16T04:40:21.662Z,13.10
2023-09-16T04:42:29.739Z,12.38
2023-09-16T04:44:32.329Z,12.60
2023-09-16T04:46:34.684Z,12.63
2023-09-16T04:48:37.396Z,12.80
2023-09-16T04:50:39.763Z,13.00
2023-09-16T04:52:44.130Z,12.95
2023-09-16T04:54:46.447Z,12.82
2023-09-16T04:56:48.776Z,12.68
2023-09-16T04:58:51.442Z,12.70
2023-09-16T05:00:54.196Z,11.90
2023-09-16T05:02:56.826Z,12.88
2023-09-16T05:04:59.269Z,13.13
2023-09-16T05:07:01.582Z,13.48
2023-09-16T05:09:04.380Z,12.50
2023-09-16T05:11:06.725Z,13.50
2023-09-16T05:13:09.083Z,13.68
2023-09-16T05:15:12.230Z,13.52
2023-09-16T05:17:14.507Z,13.05
2023-09-16T05:19:17.431Z,13.75
2023-09-16T05:21:19.933Z,13.40
2023-09-16T05:23:24.945Z,13.88
2023-09-16T05:25:27.474Z,14.50
2023-09-16T05:27:29.955Z,13.25
2023-09-16T05:29:32.353Z,14.27
2023-09-16T05:31:34.790Z,13.20
2023-09-16T05:33:37.172Z,13.98
2023-09-16T05:35:40.627Z,14.13
2023-09-16T05:37:42.847Z,13.68
2023-09-16T05:39:45.363Z,13.18
2023-09-16T05:41:48.986Z,13.15
2023-09-16T05:43:51.376Z,14.85
2023-09-16T05:45:54.041Z,13.55
2023-09-16T05:47:56.882Z,13.82
2023-09-16T05:49:59.312Z,14.70
2023-09-16T05:52:01.626Z,14.25
2023-09-16T05:54:04.221Z,13.40
2023-09-16T05:56:06.575Z,14.32
2023-09-16T05:58:12.987Z,14.43
2023-09-16T06:00:16.100Z,14.60
2023-09-16T06:02:19.168Z,14.43
2023-09-16T06:04:21.394Z,14.57
2023-09-16T06:06:23.746Z,13.95
2023-09-16T06:08:26.137Z,14.27
2023-09-16T06:10:28.463Z,14.38
2023-09-16T06:12:30.948Z,13.63
2023-09-16T06:14:33.287Z,15.02
2023-09-16T06:16:35.906Z,15.32
2023-09-16T06:18:38.666Z,15.48
2023-09-16T06:20:41.555Z,14.73
2023-09-16T06:22:43.854Z,14.30
2023-09-16T06:24:46.272Z,14.25
2023-09-16T06:26:48.651Z,14.07
2023-09-16T06:28:51.285Z,13.48
2023-09-16T06:30:54.760Z,14.55
2023-09-16T06:32:58.668Z,14.80
2023-09-16T06:35:01.012Z,14.75
2023-09-16T06:37:06.762Z,14.27
2023-09-16T06:39:11.525Z,14.57
2023-09-16T06:41:13.870Z,14.45
2023-09-16T06:43:16.138Z,15.25
2023-09-16T06:45:18.850Z,15.40
2023-09-16T06:47:27.175Z,15.00
2023-09-16T06:49:29.650Z,14.07
2023-09-16T06:51:32.050Z,14.65
2023-09-16T06:53:34.972Z,15.02
2023-09-16T06:55:37.216Z,15.07
2023-09-16T07:00:07.948Z,15.07
2023-09-16T07:02:10.394Z,14.93
2023-09-16T07:04:12.807Z,15.80
2023-09-16T07:06:15.213Z,15.73
2023-09-16T07:08:19.054Z,15.80
2023-09-16T07:10:22.406Z,15.73
2023-09-16T07:12:26.061Z,15.35
2023-09-16T07:14:28.282Z,15.57
2023-09-16T07:16:38.369Z,16.25
2023-09-16T07:18:41.385Z,15.75
2023-09-16T07:20:43.832Z,16.23
2023-09-16T07:22:46.009Z,16.40
2023-09-16T07:24:48.452Z,16.52
2023-09-16T07:26:51.401Z,15.63
2023-09-16T07:28:53.919Z,16.30
2023-09-16T07:30:58.476Z,16.15
2023-09-16T07:33:01.028Z,16.25
2023-09-16T07:35:03.528Z,15.55
2023-09-16T07:37:05.845Z,15.23
2023-09-16T07:39:08.227Z,15.63
2023-09-16T07:41:10.971Z,15.52
2023-09-16T07:43:14.180Z,15.38
2023-09-16T07:45:16.769Z,15.43
2023-09-16T07:47:19.276Z,15.90
2023-09-16T07:49:23.012Z,16.60
2023-09-16T07:51:25.381Z,15.27
2023-09-16T07:53:27.785Z,16.92
2023-09-16T07:55:30.376Z,15.27
2023-09-16T07:57:32.817Z,15.52
2023-09-16T07:59:38.070Z,15.70
2023-09-16T08:01:40.873Z,16.48
2023-09-16T08:03:44.373Z,15.73
2023-09-16T08:05:47.185Z,16.38
2023-09-16T08:07:49.757Z,15.35
2023-09-16T08:09:52.713Z,15.55
2023-09-16T08:11:55.033Z,15.63
2023-09-16T08:13:57.372Z,15.55
2023-09-16T08:15:59.817Z,16.23
2023-09-16T08:18:02.191Z,15.05
2023-09-16T08:20:04.994Z,15.55
2023-09-16T08:22:07.497Z,15.10
2023-09-16T08:24:10.063Z,15.15
2023-09-16T08:26:12.443Z,15.55
2023-09-16T08:28:14.993Z,15.15
2023-09-16T08:30:17.502Z,14.65
2023-09-16T08:32:20.727Z,14.10
2023-09-16T08:34:23.198Z,13.55
2023-09-16T08:36:25.695Z,13.20
2023-09-16T08:38:28.068Z,13.43
2023-09-16T08:40:33.770Z,13.00
2023-09-16T08:42:41.586Z,11.70
2023-09-16T08:44:46.234Z,12.60
2023-09-16T08:46:56.780Z,11.90
2023-09-16T08:49:02.446Z,11.05
2023-09-16T08:51:07.464Z,11.88
2023-09-16T08:53:13.802Z,11.38
2023-09-16T08:55:17.792Z,12.45
2023-09-16T08:57:20.993Z,11.13
2023-09-16T08:59:23.445Z,11.38
2023-09-16T09:01:26.483Z,10.90
2023-09-16T09:03:29.574Z,10.70
2023-09-16T09:05:34.927Z,11.93
2023-09-16T09:07:41.084Z,10.77
2023-09-16T09:09:43.499Z,11.82
2023-09-16T09:11:47.242Z,10.40
2023-09-16T09:13:51.734Z,9.63
2023-09-16T09:16:01.196Z,10.80
2023-09-16T09:18:04.832Z,9.95
2023-09-16T09:20:11.410Z,8.07
2023-09-16T09:22:14.197Z,8.60
2023-09-16T09:24:16.576Z,14.77
2023-09-16T09:26:19.084Z,11.73
2023-09-16T09:28:21.706Z,10.35
2023-09-16T09:30:27.375Z,7.88
2023-09-16T09:32:30.984Z,6.95
2023-09-16T09:34:33.421Z,7.25
2023-09-16T09:36:36.509Z,7.07
2023-09-16T09:38:43.035Z,6.85
2023-09-16T09:40:51.865Z,7.68
2023-09-16T09:42:57.822Z,6.78
2023-09-16T09:45:04.589Z,6.40
2023-09-16T09:47:08.513Z,6.40
2023-09-16T09:49:13.027Z,6.38
2023-09-16T09:51:19.557Z,6.70
2023-09-16T09:53:24.260Z,7.97
2023-09-16T09:55:30.892Z,7.80
2023-09-16T09:57:34.895Z,6.90
2023-09-16T09:59:37.592Z,6.53
2023-09-16T10:01:42.239Z,6.80
2023-09-16T10:03:50.326Z,6.43
2023-09-16T10:05:52.875Z,5.78
2023-09-16T10:07:55.279Z,5.65
2023-09-16T10:09:57.793Z,5.65
2023-09-16T10:12:00.533Z,6.07
2023-09-16T10:14:03.535Z,5.60
2023-09-16T10:16:07.507Z,5.28
2023-09-16T10:18:10.419Z,5.93
2023-09-16T10:20:15.057Z,11.45
2023-09-16T10:22:19.152Z,14.95
2023-09-16T10:24:22.368Z,9.45
2023-09-16T10:26:25.310Z,8.57
2023-09-16T10:28:27.939Z,6.30
2023-09-16T10:30:32.213Z,6.10
2023-09-16T10:32:36.045Z,5.00
2023-09-16T10:34:40.435Z,5.72
2023-09-16T10:36:43.264Z,6.22
2023-09-16T10:38:48.720Z,5.38
2023-09-16T10:40:53.838Z,4.80
2023-09-16T10:42:59.024Z,4.68
2023-09-16T10:45:04.399Z,4.18
2023-09-16T10:47:07.872Z,4.68
2023-09-16T10:49:10.820Z,4.45
2023-09-16T10:51:20.013Z,4.32
2023-09-16T10:53:25.648Z,4.57
2023-09-16T10:55:37.568Z,4.38
2023-09-16T10:57:49.292Z,3.95
2023-09-16T10:59:54.330Z,4.45
2023-09-16T11:01:59.499Z,4.00
2023-09-16T11:04:09.950Z,4.30
2023-09-16T11:06:12.690Z,3.63
2023-09-16T11:08:15.965Z,3.83
2023-09-16T11:10:19.149Z,3.55
2023-09-16T11:12:22.932Z,3.90
2023-09-16T11:14:25.779Z,3.20
2023-09-16T11:16:28.144Z,3.20
2023-09-16T11:18:31.533Z,2.70
2023-09-16T11:20:35.255Z,3.35
2023-09-16T11:22:38.621Z,3.17
2023-09-16T11:24:42.100Z,3.20
2023-09-16T11:26:49.059Z,2.88
2023-09-16T11:28:55.224Z,2.17
2023-09-16T11:31:01.631Z,2.70
2023-09-16T11:33:06.036Z,2.80
2023-09-16T11:35:08.810Z,2.60
2023-09-16T11:37:15.432Z,2.78
2023-09-16T11:39:19.676Z,2.30
2023-09-16T11:41:22.305Z,2.60
2023-09-16T11:43:25.078Z,2.63
2023-09-16T11:45:30.084Z,2.90
2023-09-16T11:47:33.533Z,2.45
2023-09-16T11:49:36.500Z,2.53
2023-09-16T11:51:39.240Z,2.55
2023-09-16T11:53:41.759Z,3.88
2023-09-16T11:55:44.547Z,2.22
2023-09-16T11:57:48.802Z,2.35
2023-09-16T11:59:52.083Z,3.25
2023-09-16T12:01:56.662Z,2.20
2023-09-16T12:04:00.908Z,3.00
2023-09-16T12:06:04.685Z,2.25
2023-09-16T12:08:07.807Z,1.75
2023-09-16T12:10:11.103Z,1.80
2023-09-16T12:12:16.729Z,2.53
2023-09-16T12:14:19.826Z,2.00
2023-09-16T12:16:23.538Z,2.20
2023-09-16T12:18:28.591Z,2.13
2023-09-16T12:20:33.740Z,2.03
2023-09-16T12:22:36.013Z,2.00
2023-09-16T12:24:38.483Z,2.05
2023-09-16T12:26:42.185Z,2.20
2023-09-16T12:28:44.803Z,1.75
2023-09-16T12:30:50.467Z,1.40
2023-09-16T12:32:53.236Z,1.85
2023-09-16T12:35:02.017Z,1.60
2023-09-16T12:37:05.135Z,1.17
2023-09-16T12:39:07.953Z,1.92
2023-09-16T12:41:14.442Z,1.90
2023-09-16T12:43:17.247Z,2.28
2023-09-16T12:45:19.964Z,1.75
2023-09-16T12:47:23.174Z,1.90
2023-09-16T12:49:27.467Z,2.20
2023-09-16T12:51:31.134Z,1.90
2023-09-16T12:53:33.799Z,2.20
2023-09-16T12:55:40.650Z,2.28
2023-09-16T12:57:44.200Z,1.98
2023-09-16T12:59:48.046Z,2.53
2023-09-16T13:01:53.855Z,2.17
2023-09-16T13:03:56.608Z,2.10
2023-09-16T13:05:59.100Z,2.60
2023-09-16T13:08:04.372Z,2.50
2023-09-16T13:10:08.693Z,2.10
2023-09-16T13:12:11.211Z,1.60
2023-09-16T13:14:14.093Z,4.07
2023-09-16T13:16:16.420Z,2.33
2023-09-16T13:18:19.077Z,1.90
2023-09-16T13:20:21.606Z,2.08
2023-09-16T13:22:24.269Z,1.83
2023-09-16T13:24:27.061Z,2.45
2023-09-16T13:26:31.268Z,1.92
2023-09-16T13:28:33.693Z,1.75
2023-09-16T13:30:38.996Z,2.45
2023-09-16T13:32:48.258Z,2.05
2023-09-16T13:34:50.723Z,2.30
2023-09-16T13:36:53.287Z,1.90
2023-09-16T13:38:55.675Z,3.30
2023-09-16T13:40:58.311Z,2.63
2023-09-16T13:43:02.377Z,2.88
2023-09-16T13:45:05.498Z,1.92
2023-09-16T13:47:07.843Z,1.75
2023-09-16T13:49:11.382Z,2.20
2023-09-16T13:51:15.017Z,1.52
2023-09-16T13:53:20.398Z,2.30
2023-09-16T13:55:22.755Z,2.10
2023-09-16T13:57:27.335Z,1.60
2023-09-16T13:59:31.948Z,1.60
2023-09-16T14:01:34.304Z,1.80
2023-09-16T14:03:36.935Z,1.60
2023-09-16T14:05:39.738Z,2.28
2023-09-16T14:07:43.769Z,1.75
2023-09-16T14:09:47.777Z,1.70
2023-09-16T14:11:50.061Z,1.55
2023-09-16T14:13:52.664Z,2.38
2023-09-16T14:15:55.136Z,1.50
2023-09-16T14:17:57.858Z,1.90
2023-09-16T14:20:00.267Z,2.03
2023-09-16T14:22:03.016Z,1.77
2023-09-16T14:24:05.988Z,1.52
2023-09-16T14:26:11.702Z,1.70
2023-09-16T14:28:14.097Z,1.52
2023-09-16T14:30:18.716Z,1.10
2023-09-16T14:32:21.452Z,1.80
2023-09-16T14:34:23.785Z,2.05
2023-09-16T14:36:26.255Z,1.63
2023-09-16T14:38:28.557Z,2.33
2023-09-16T14:40:32.263Z,1.92
2023-09-16T14:42:34.620Z,1.58
2023-09-16T14:44:37.620Z,1.38
2023-09-16T14:46:40.190Z,1.27
2023-09-16T14:48:42.724Z,1.20
2023-09-16T14:50:44.955Z,1.08
2023-09-16T14:52:49.874Z,1.60
2023-09-16T14:54:53.990Z,1.10
2023-09-16T14:56:56.343Z,1.30
2023-09-16T14:58:58.593Z,1.20
2023-09-16T15:01:02.405Z,1.55
2023-09-16T15:03:07.810Z,1.88
2023-09-16T15:05:11.089Z,1.55
2023-09-16T15:07:13.755Z,1.98
2023-09-16T15:09:16.584Z,1.30
2023-09-16T15:11:19.236Z,1.10
2023-09-16T15:13:21.525Z,1.13
2023-09-16T15:15:24.031Z,1.02
2023-09-16T15:17:26.984Z,1.45
2023-09-16T15:19:34.699Z,1.80
2023-09-16T15:21:37.244Z,1.42
2023-09-16T15:23:39.686Z,1.50
2023-09-16T15:25:42.275Z,1.00
2023-09-16T15:27:44.928Z,1.33
2023-09-16T15:29:47.580Z,1.20
2023-09-16T15:31:56.519Z,1.42
2023-09-16T15:34:12.587Z,1.50
2023-09-16T15:36:15.185Z,2.05
2023-09-16T15:38:17.736Z,1.35
2023-09-16T15:40:20.102Z,1.52
2023-09-16T15:42:22.865Z,1.38
2023-09-16T15:44:25.377Z,1.30
2023-09-16T15:46:28.362Z,1.17
2023-09-16T15:48:31.254Z,1.05
2023-09-16T15:50:46.558Z,1.88
2023-09-16T15:52:49.147Z,1.60
2023-09-16T15:54:51.345Z,1.55
2023-09-16T15:56:53.824Z,1.50
2023-09-16T15:58:56.402Z,1.90
2023-09-16T16:00:59.225Z,1.30
2023-09-16T16:03:02.259Z,1.50
2023-09-16T16:05:05.754Z,2.22
2023-09-16T16:07:08.207Z,1.55
2023-09-16T16:09:10.993Z,1.65
2023-09-16T16:11:13.671Z,1.70
2023-09-16T16:13:19.695Z,1.52
2023-09-16T16:15:22.656Z,1.20
2023-09-16T16:17:25.288Z,1.00
2023-09-16T16:19:28.130Z,1.85
2023-09-16T16:21:30.564Z,1.30
2023-09-16T16:23:32.958Z,1.25
2023-09-16T16:25:38.068Z,1.33
2023-09-16T16:27:40.790Z,1.83
2023-09-16T16:29:43.411Z,1.85
2023-09-16T16:31:46.697Z,2.10
2023-09-16T16:33:49.666Z,1.52
2023-09-16T16:35:54.818Z,1.25
2023-09-16T16:37:57.365Z,1.00
2023-09-16T16:39:59.759Z,1.30
2023-09-16T16:42:02.201Z,1.10
2023-09-16T16:44:06.127Z,1.02
2023-09-16T16:46:12.464Z,1.05
2023-09-16T16:48:15.496Z,1.20
2023-09-16T16:50:18.582Z,1.08
2023-09-16T16:52:21.005Z,1.08
2023-09-16T16:54:23.507Z,1.10
2023-09-16T16:56:25.909Z,1.30
2023-09-16T16:58:28.682Z,1.00
2023-09-16T17:00:31.786Z,1.00
2023-09-16T17:02:34.490Z,1.17
2023-09-16T17:04:38.203Z,1.08
2023-09-16T17:06:40.857Z,0.90
2023-09-16T17:08:43.555Z,1.30
2023-09-16T17:10:46.188Z,1.38
2023-09-16T17:12:48.472Z,1.80
2023-09-16T17:14:51.131Z,1.20
2023-09-16T17:16:54.325Z,1.00
2023-09-16T17:18:56.895Z,1.70
2023-09-16T17:20:59.531Z,1.67
2023-09-16T17:23:01.972Z,2.08
2023-09-16T17:25:06.182Z,2.28
2023-09-16T17:27:08.766Z,2.00
2023-09-16T17:29:12.887Z,11.77
2023-09-16T17:31:15.933Z,9.52
2023-09-16T17:33:19.579Z,9.85
2023-09-16T17:35:22.039Z,7.82
2023-09-16T17:37:24.880Z,3.13
2023-09-16T17:39:27.312Z,10.57
2023-09-16T17:41:29.896Z,34.45
2023-09-16T17:43:33.410Z,6.20
2023-09-16T17:45:35.941Z,5.72
2023-09-16T17:47:38.493Z,2.83
2023-09-16T17:49:41.509Z,2.95
2023-09-16T17:51:44.472Z,2.72
2023-09-16T17:53:46.775Z,2.55
2023-09-16T17:55:49.111Z,2.00
2023-09-16T17:57:51.757Z,2.05
2023-09-16T17:59:57.389Z,2.47
2023-09-16T18:02:00.289Z,2.10
2023-09-16T18:04:06.577Z,2.60
2023-09-16T18:06:09.180Z,2.72
2023-09-16T18:08:11.684Z,2.83
2023-09-16T18:10:14.111Z,2.58
2023-09-16T18:12:16.791Z,2.63
2023-09-16T18:14:19.488Z,2.90
2023-09-16T18:16:22.758Z,2.67
2023-09-16T18:18:25.727Z,2.67
2023-09-16T18:20:30.885Z,3.15
2023-09-16T18:22:33.377Z,3.05
2023-09-16T18:24:36.948Z,3.40
2023-09-16T18:26:39.339Z,3.30
2023-09-16T18:28:44.955Z,3.95
2023-09-16T18:30:51.887Z,3.58
2023-09-16T18:32:54.480Z,3.13
2023-09-16T18:34:56.936Z,3.78
2023-09-16T18:36:59.735Z,3.15
2023-09-16T18:39:02.948Z,3.08
2023-09-16T18:41:05.633Z,2.92
2023-09-16T18:43:07.937Z,3.25
2023-09-16T18:45:11.587Z,3.20
2023-09-16T18:47:14.217Z,2.67
2023-09-16T18:49:19.196Z,17.42
2023-09-16T18:51:21.819Z,13.15
2023-09-16T18:53:24.795Z,15.88
2023-09-16T18:55:27.364Z,7.55
2023-09-16T18:57:29.954Z,3.92
2023-09-16T18:59:32.860Z,6.22
2023-09-16T19:01:35.626Z,5.82
2023-09-16T19:03:38.189Z,3.33
2023-09-16T19:05:41.394Z,9.38
2023-09-16T19:07:43.820Z,8.15
2023-09-16T19:09:46.539Z,4.53
2023-09-16T19:11:50.971Z,7.25
2023-09-16T19:13:53.370Z,31.17
2023-09-16T19:15:58.764Z,7.18
2023-09-16T19:18:01.247Z,5.63
2023-09-16T19:20:04.516Z,5.10
2023-09-16T19:22:07.813Z,4.90
2023-09-16T19:24:10.182Z,4.68
2023-09-16T19:26:13.053Z,4.07
2023-09-16T19:28:15.387Z,4.30
2023-09-16T19:30:18.272Z,3.95
2023-09-16T19:32:20.674Z,4.38
2023-09-16T19:34:23.355Z,4.47
2023-09-16T19:36:26.109Z,5.53
2023-09-16T19:38:28.617Z,4.50
2023-09-16T19:40:31.270Z,4.20
2023-09-16T19:42:34.697Z,5.82
2023-09-16T19:44:37.443Z,4.80
2023-09-16T19:46:51.275Z,4.00
2023-09-16T19:48:58.964Z,4.85
2023-09-16T19:51:02.467Z,4.10
2023-09-16T19:53:05.557Z,4.47
2023-09-16T19:55:08.911Z,4.88
2023-09-16T19:57:11.303Z,5.20
2023-09-16T19:59:13.769Z,4.75
2023-09-16T20:01:16.618Z,4.57
2023-09-16T20:03:19.263Z,4.50
2023-09-16T20:05:23.189Z,4.35
2023-09-16T20:07:25.612Z,4.40
2023-09-16T20:09:28.822Z,4.35
2023-09-16T20:11:34.142Z,4.47
2023-09-16T20:13:37.146Z,4.35
2023-09-16T20:15:39.561Z,4.18
2023-09-16T20:17:42.427Z,4.25
2023-09-16T20:19:45.051Z,3.75
2023-09-16T20:21:50.109Z,3.45
2023-09-16T20:23:55.108Z,3.67
2023-09-16T20:25:59.840Z,4.10
2023-09-16T20:28:02.661Z,3.97
2023-09-16T20:30:07.949Z,3.42
2023-09-16T20:32:12.997Z,3.85
2023-09-16T20:34:18.429Z,3.50
2023-09-16T20:36:21.462Z,2.95
2023-09-16T20:38:24.167Z,2.97
2023-09-16T20:40:26.991Z,3.38
2023-09-16T20:42:31.887Z,3.35
2023-09-16T20:44:35.217Z,3.67
2023-09-16T20:46:37.801Z,3.78
2023-09-16T20:48:40.782Z,5.22
2023-09-16T20:50:49.370Z,5.00
2023-09-16T20:52:51.772Z,5.03
2023-09-16T20:54:54.413Z,4.05
2023-09-16T20:56:57.697Z,4.57
2023-09-16T20:59:02.206Z,3.03
2023-09-16T21:01:04.773Z,5.13
2023-09-16T21:03:07.360Z,6.53
2023-09-16T21:05:10.731Z,3.63
2023-09-16T21:07:16.031Z,3.10
2023-09-16T21:09:18.426Z,2.35
2023-09-16T21:11:21.348Z,2.60
2023-09-16T21:13:24.495Z,3.00
2023-09-16T21:15:28.856Z,2.75
2023-09-16T21:17:31.518Z,2.60
2023-09-16T21:19:35.123Z,2.72
2023-09-16T21:21:37.878Z,2.63
2023-09-16T21:23:40.167Z,3.00
2023-09-16T21:25:44.197Z,2.33
2023-09-16T21:27:46.674Z,2.45
2023-09-16T21:29:49.987Z,2.63
2023-09-16T21:32:00.830Z,2.25
2023-09-16T21:34:05.878Z,2.25
2023-09-16T21:36:39.438Z,2.28
2023-09-16T21:38:42.154Z,2.40
2023-09-16T21:40:45.724Z,2.40
2023-09-16T21:42:48.805Z,2.33
2023-09-16T21:44:51.635Z,3.22
2023-09-16T21:46:54.769Z,2.80
2023-09-16T21:48:57.680Z,2.67
2023-09-16T21:51:00.388Z,2.28
2023-09-16T21:53:04.879Z,2.75
2023-09-16T21:55:08.209Z,3.03
2023-09-16T21:57:11.300Z,2.17
2023-09-16T21:59:14.076Z,2.80
2023-09-16T22:01:17.555Z,2.60
2023-09-16T22:03:20.466Z,3.35
2023-09-16T22:05:23.987Z,2.67
2023-09-16T22:07:26.888Z,3.13
2023-09-16T22:09:29.651Z,2.83
2023-09-16T22:11:32.523Z,3.08
2023-09-16T22:13:35.865Z,3.42
2023-09-16T22:15:40.462Z,3.38
2023-09-16T22:17:44.795Z,3.30
2023-09-16T22:19:48.162Z,3.88
2023-09-16T22:21:50.876Z,4.10
2023-09-16T22:23:53.575Z,4.25
2023-09-16T22:26:02.756Z,3.80
2023-09-16T22:28:05.919Z,4.13
2023-09-16T22:30:09.038Z,4.38
2023-09-16T22:32:11.718Z,4.57
2023-09-16T22:34:14.413Z,4.80
2023-09-16T22:36:17.052Z,4.40
2023-09-16T22:38:19.956Z,4.50
2023-09-16T22:40:22.565Z,4.47
2023-09-16T22:42:25.647Z,4.85
2023-09-16T22:44:28.205Z,5.68
2023-09-16T22:46:30.931Z,5.07
2023-09-16T22:48:34.462Z,5.10
2023-09-16T22:50:36.969Z,4.88
2023-09-16T22:52:39.695Z,5.45
2023-09-16T22:54:42.384Z,4.47
2023-09-16T22:56:44.895Z,5.57
2023-09-16T22:58:51.130Z,5.18
2023-09-16T23:00:56.586Z,5.22
2023-09-16T23:02:58.990Z,5.72
2023-09-16T23:05:03.134Z,5.28
2023-09-16T23:07:05.669Z,4.78
2023-09-16T23:09:08.296Z,5.30
2023-09-16T23:11:13.742Z,5.78
2023-09-16T23:13:18.216Z,5.90
2023-09-16T23:15:20.590Z,6.20
2023-09-16T23:17:23.211Z,5.75
2023-09-16T23:19:25.840Z,4.85
2023-09-16T23:21:28.221Z,5.50
2023-09-16T23:23:30.550Z,6.65
2023-09-16T23:25:32.827Z,6.43
2023-09-16T23:27:35.111Z,5.72
2023-09-16T23:29:37.881Z,6.43
2023-09-16T23:31:40.558Z,6.18
2023-09-16T23:33:43.403Z,6.95
2023-09-16T23:35:45.923Z,7.00
2023-09-16T23:37:48.134Z,7.10
2023-09-16T23:39:50.367Z,7.40
2023-09-16T23:41:54.809Z,8.05
2023-09-16T23:43:57.091Z,7.63
2023-09-16T23:45:59.646Z,6.80
2023-09-16T23:48:01.921Z,7.50
2023-09-16T23:50:04.723Z,8.00
2023-09-16T23:52:07.498Z,8.23
2023-09-16T23:54:09.696Z,8.35
2023-09-16T23:56:14.962Z,8.13
2023-09-16T23:58:20.791Z,8.00
